createdAt,value
2019-05-23T00:01:22.984Z,13.80
2019-05-23T00:02:55.511Z,13.80
2019-05-23T00:04:28.014Z,13.80
2019-05-23T00:06:00.436Z,13.80
2019-05-23T00:07:32.996Z,13.70
2019-05-23T00:09:05.480Z,13.70
2019-05-23T00:10:37.828Z,13.70
2019-05-23T00:12:10.346Z,13.70
2019-05-23T00:13:42.830Z,13.70
2019-05-23T00:15:15.360Z,13.70
2019-05-23T00:16:47.879Z,13.70
2019-05-23T00:18:21.240Z,13.70
2019-05-23T00:19:53.811Z,13.70
2019-05-23T00:21:26.298Z,13.70
2019-05-23T00:22:59.268Z,13.60
2019-05-23T00:24:31.671Z,13.70
2019-05-23T00:26:04.100Z,13.60
2019-05-23T00:27:36.530Z,13.60
2019-05-23T00:29:10.325Z,13.70
2019-05-23T00:30:43.283Z,13.60
2019-05-23T00:32:15.771Z,13.60
2019-05-23T00:33:48.251Z,13.60
2019-05-23T00:35:20.718Z,13.60
2019-05-23T00:36:53.212Z,13.60
2019-05-23T00:38:25.747Z,13.60
2019-05-23T00:39:58.563Z,13.60
2019-05-23T00:41:31.057Z,13.60
2019-05-23T00:43:03.488Z,13.60
2019-05-23T00:44:35.847Z,13.60
2019-05-23T00:46:08.364Z,13.60
2019-05-23T00:47:40.785Z,13.50
2019-05-23T00:49:13.258Z,13.60
2019-05-23T00:50:45.921Z,13.50
2019-05-23T00:52:18.299Z,13.60
2019-05-23T00:53:50.736Z,13.60
2019-05-23T00:55:23.146Z,13.50
2019-05-23T00:56:55.641Z,13.50
2019-05-23T00:58:28.119Z,13.50
2019-05-23T01:00:00.546Z,13.50
2019-05-23T01:01:32.964Z,13.50
2019-05-23T01:03:05.662Z,13.50
2019-05-23T01:04:38.157Z,13.50
2019-05-23T01:06:10.590Z,13.50
2019-05-23T01:07:43.076Z,13.50
2019-05-23T01:09:15.753Z,13.40
2019-05-23T01:10:48.360Z,13.40
2019-05-23T01:12:20.791Z,13.40
2019-05-23T01:13:53.211Z,13.40
2019-05-23T01:15:25.763Z,13.40
2019-05-23T01:16:58.175Z,13.40
2019-05-23T01:18:30.535Z,13.40
2019-05-23T01:20:02.930Z,13.40
2019-05-23T01:21:35.803Z,13.40
2019-05-23T01:23:08.272Z,13.40
2019-05-23T01:24:40.685Z,13.40
2019-05-23T01:26:13.239Z,13.40
2019-05-23T01:27:45.683Z,13.40
2019-05-23T01:29:18.104Z,13.40
2019-05-23T01:30:50.606Z,13.40
2019-05-23T01:32:23.074Z,13.30
2019-05-23T01:33:55.534Z,13.40
2019-05-23T01:35:28.039Z,13.30
2019-05-23T01:37:00.447Z,13.30
2019-05-23T01:38:32.810Z,13.40
2019-05-23T01:40:05.237Z,13.40
2019-05-23T01:41:37.736Z,13.40
2019-05-23T01:43:10.419Z,13.40
2019-05-23T01:44:42.762Z,13.40
2019-05-23T01:46:15.193Z,13.40
2019-05-23T01:47:47.530Z,13.40
2019-05-23T01:49:19.949Z,13.40
2019-05-23T01:50:52.495Z,13.40
2019-05-23T01:52:24.875Z,13.40
2019-05-23T01:53:57.290Z,13.40
2019-05-23T01:55:29.797Z,13.40
2019-05-23T01:57:02.255Z,13.40
2019-05-23T01:58:34.710Z,13.50
2019-05-23T02:00:10.743Z,13.50
2019-05-23T02:01:41.194Z,13.50
2019-05-23T02:03:13.669Z,13.50
2019-05-23T02:04:46.103Z,13.50
2019-05-23T02:06:18.533Z,13.40
2019-05-23T02:07:50.950Z,13.40
2019-05-23T02:09:23.454Z,13.50
2019-05-23T02:10:55.947Z,13.40
2019-05-23T02:12:28.564Z,13.40
2019-05-23T02:14:00.984Z,13.40
2019-05-23T02:15:33.481Z,13.40
2019-05-23T02:17:05.837Z,13.40
2019-05-23T02:18:38.336Z,13.40
2019-05-23T02:20:10.677Z,13.40
2019-05-23T02:21:43.054Z,13.40
2019-05-23T02:23:15.482Z,13.40
2019-05-23T02:24:47.898Z,13.40
2019-05-23T02:26:20.411Z,13.40
2019-05-23T02:27:52.935Z,13.50
2019-05-23T02:29:25.324Z,13.40
2019-05-23T02:30:58.613Z,13.50
2019-05-23T02:32:31.116Z,13.50
2019-05-23T02:34:03.791Z,13.40
2019-05-23T02:35:36.225Z,13.50
2019-05-23T02:37:08.838Z,13.50
2019-05-23T02:38:41.796Z,13.50
2019-05-23T02:40:14.464Z,13.50
2019-05-23T02:41:47.007Z,13.50
2019-05-23T02:43:19.439Z,13.50
2019-05-23T02:44:52.031Z,13.50
2019-05-23T02:46:24.475Z,13.50
2019-05-23T02:47:56.904Z,13.50
2019-05-23T02:49:29.320Z,13.50
2019-05-23T02:51:01.745Z,13.50
2019-05-23T02:52:34.236Z,13.50
2019-05-23T02:54:06.727Z,13.50
2019-05-23T02:55:39.145Z,13.50
2019-05-23T02:57:11.558Z,13.50
2019-05-23T02:58:44.077Z,13.50
2019-05-23T03:00:16.593Z,13.50
2019-05-23T03:01:49.022Z,13.50
2019-05-23T03:03:21.530Z,13.50
2019-05-23T03:04:54.043Z,13.50
2019-05-23T03:06:26.468Z,13.50
2019-05-23T03:07:58.913Z,13.50
2019-05-23T03:09:31.407Z,13.50
2019-05-23T03:11:03.841Z,13.50
2019-05-23T03:12:36.341Z,13.50
2019-05-23T03:14:08.761Z,13.50
2019-05-23T03:15:41.273Z,13.50
2019-05-23T03:17:13.768Z,13.40
2019-05-23T03:18:46.244Z,13.40
2019-05-23T03:20:18.617Z,13.40
2019-05-23T03:21:51.104Z,13.40
2019-05-23T03:23:23.591Z,13.40
2019-05-23T03:24:56.099Z,13.40
2019-05-23T03:26:28.645Z,13.40
2019-05-23T03:28:01.074Z,13.40
2019-05-23T03:29:33.500Z,13.40
2019-05-23T03:31:27.437Z,13.30
2019-05-23T03:32:40.094Z,13.30
2019-05-23T03:34:12.494Z,13.30
2019-05-23T03:35:45.128Z,13.30
2019-05-23T03:37:17.645Z,13.30
2019-05-23T03:38:50.075Z,13.30
2019-05-23T03:40:22.617Z,13.30
2019-05-23T03:41:55.065Z,13.20
2019-05-23T03:43:27.490Z,13.20
2019-05-23T03:45:00.017Z,13.20
2019-05-23T03:46:34.153Z,13.20
2019-05-23T03:48:06.573Z,13.20
2019-05-23T03:49:39.064Z,13.20
2019-05-23T03:51:11.582Z,13.20
2019-05-23T03:52:44.074Z,13.10
2019-05-23T03:54:16.537Z,13.20
2019-05-23T03:55:48.951Z,13.10
2019-05-23T03:57:25.298Z,13.20
2019-05-23T03:58:55.426Z,13.10
2019-05-23T04:00:28.698Z,13.10
2019-05-23T04:02:01.182Z,13.10
2019-05-23T04:03:33.677Z,13.10
2019-05-23T04:05:06.179Z,13.10
2019-05-23T04:06:38.900Z,13.10
2019-05-23T04:08:11.401Z,13.10
2019-05-23T04:09:43.944Z,13.20
2019-05-23T04:11:16.337Z,13.20
2019-05-23T04:12:49.149Z,13.10
2019-05-23T04:14:21.643Z,13.10
2019-05-23T04:15:54.003Z,13.20
2019-05-23T04:17:26.824Z,13.20
2019-05-23T04:18:59.367Z,13.10
2019-05-23T04:20:31.778Z,13.10
2019-05-23T04:22:11.985Z,13.20
2019-05-23T04:23:47.966Z,13.20
2019-05-23T04:25:20.369Z,13.20
2019-05-23T04:26:52.930Z,13.20
2019-05-23T04:28:25.618Z,13.10
2019-05-23T04:29:58.178Z,13.10
2019-05-23T04:31:30.658Z,13.10
2019-05-23T04:33:03.208Z,13.10
2019-05-23T04:34:35.712Z,13.10
2019-05-23T04:36:08.196Z,13.10
2019-05-23T04:37:40.787Z,13.10
2019-05-23T04:39:13.288Z,13.00
2019-05-23T04:40:45.775Z,13.00
2019-05-23T04:42:20.162Z,13.00
2019-05-23T04:43:52.522Z,13.00
2019-05-23T04:45:25.199Z,13.00
2019-05-23T04:46:57.758Z,13.00
2019-05-23T04:48:33.390Z,13.00
2019-05-23T04:50:07.423Z,13.00
2019-05-23T04:51:39.900Z,13.00
2019-05-23T04:53:12.266Z,13.00
2019-05-23T04:54:44.834Z,13.00
2019-05-23T04:56:17.613Z,13.00
2019-05-23T04:57:50.028Z,13.00
2019-05-23T04:59:22.455Z,13.10
2019-05-23T05:00:54.941Z,13.10
2019-05-23T05:02:27.419Z,13.00
2019-05-23T05:03:59.915Z,13.10
2019-05-23T05:05:32.336Z,13.10
2019-05-23T05:07:04.879Z,13.10
2019-05-23T05:08:37.290Z,13.10
2019-05-23T05:10:09.774Z,13.10
2019-05-23T05:11:42.200Z,13.10
2019-05-23T05:13:14.622Z,13.10
2019-05-23T05:14:47.325Z,13.10
2019-05-23T05:16:19.762Z,13.20
2019-05-23T05:17:52.272Z,13.20
2019-05-23T05:19:24.763Z,13.20
2019-05-23T05:20:57.109Z,13.20
2019-05-23T05:22:29.446Z,13.20
2019-05-23T05:24:01.878Z,13.10
2019-05-23T05:25:34.389Z,13.20
2019-05-23T05:27:06.872Z,13.20
2019-05-23T05:28:39.317Z,13.20
2019-05-23T05:30:11.925Z,13.20
2019-05-23T05:31:44.415Z,13.20
2019-05-23T05:33:16.830Z,13.30
2019-05-23T05:34:49.271Z,13.30
2019-05-23T05:36:21.753Z,13.30
2019-05-23T05:37:54.332Z,13.30
2019-05-23T05:39:26.750Z,13.40
2019-05-23T05:40:59.215Z,13.40
2019-05-23T05:42:31.688Z,13.40
2019-05-23T05:44:04.384Z,13.40
2019-05-23T05:45:39.309Z,13.40
2019-05-23T05:47:11.906Z,13.40
2019-05-23T05:48:44.585Z,13.50
2019-05-23T05:50:17.850Z,13.50
2019-05-23T05:51:52.556Z,13.50
2019-05-23T05:53:26.999Z,13.50
2019-05-23T05:55:01.080Z,13.50
2019-05-23T05:56:33.735Z,13.60
2019-05-23T05:58:06.365Z,13.60
2019-05-23T05:59:40.582Z,13.60
2019-05-23T06:01:31.153Z,13.60
2019-05-23T06:03:03.578Z,13.60
2019-05-23T06:04:23.652Z,13.60
2019-05-23T06:05:57.739Z,13.60
2019-05-23T06:07:30.399Z,13.70
2019-05-23T06:09:03.477Z,13.70
2019-05-23T06:10:37.500Z,13.70
2019-05-23T06:12:09.946Z,13.70
2019-05-23T06:13:42.425Z,13.80
2019-05-23T06:15:15.069Z,13.80
2019-05-23T06:16:48.267Z,13.80
2019-05-23T06:18:21.791Z,13.80
2019-05-23T06:19:54.507Z,13.90
2019-05-23T06:21:27.180Z,13.90
2019-05-23T06:23:02.583Z,13.90
2019-05-23T06:24:46.910Z,13.90
2019-05-23T06:26:10.521Z,14.00
2019-05-23T06:27:43.622Z,14.00
2019-05-23T06:29:16.049Z,14.00
2019-05-23T06:30:49.048Z,14.00
2019-05-23T06:32:23.105Z,14.10
2019-05-23T06:33:57.580Z,14.10
2019-05-23T06:35:31.267Z,14.10
2019-05-23T06:37:07.068Z,14.20
2019-05-23T06:38:41.529Z,14.20
2019-05-23T06:40:14.095Z,14.20
2019-05-23T06:41:47.914Z,14.20
2019-05-23T06:43:21.521Z,14.30
2019-05-23T06:44:57.337Z,14.30
2019-05-23T06:46:29.831Z,14.40
2019-05-23T06:48:02.307Z,14.40
2019-05-23T06:49:34.669Z,14.40
2019-05-23T06:51:07.161Z,14.50
2019-05-23T06:52:39.649Z,14.50
2019-05-23T06:54:12.279Z,14.60
2019-05-23T06:55:44.771Z,14.60
2019-05-23T06:57:17.181Z,14.60
2019-05-23T06:58:49.592Z,14.70
2019-05-23T07:00:22.020Z,14.70
2019-05-23T07:01:54.520Z,14.70
2019-05-23T07:03:40.655Z,14.80
2019-05-23T07:05:00.958Z,14.80
2019-05-23T07:06:33.416Z,14.90
2019-05-23T07:08:05.885Z,14.90
2019-05-23T07:09:38.361Z,14.90
2019-05-23T07:11:10.793Z,15.00
2019-05-23T07:12:43.208Z,15.00
2019-05-23T07:14:15.696Z,15.10
2019-05-23T07:15:48.194Z,15.10
2019-05-23T07:17:20.554Z,15.10
2019-05-23T07:18:52.959Z,15.20
2019-05-23T07:20:25.448Z,15.20
2019-05-23T07:21:57.880Z,15.20
2019-05-23T07:23:30.369Z,15.30
2019-05-23T07:25:02.780Z,15.30
2019-05-23T07:26:35.239Z,15.30
2019-05-23T07:28:07.820Z,15.40
2019-05-23T07:29:40.297Z,15.50
2019-05-23T07:31:12.671Z,15.40
2019-05-23T07:32:45.240Z,15.50
2019-05-23T07:34:17.648Z,15.50
2019-05-23T07:35:50.066Z,15.50
2019-05-23T07:37:22.499Z,15.50
2019-05-23T07:38:55.019Z,15.60
2019-05-23T07:40:27.392Z,15.70
2019-05-23T07:41:59.879Z,15.60
2019-05-23T07:43:32.489Z,15.70
2019-05-23T07:45:04.904Z,15.70
2019-05-23T07:46:37.405Z,15.70
2019-05-23T07:48:09.920Z,15.70
2019-05-23T07:49:42.333Z,15.70
2019-05-23T07:51:14.831Z,15.70
2019-05-23T07:52:47.246Z,15.70
2019-05-23T07:54:19.657Z,15.70
2019-05-23T07:55:52.083Z,15.70
2019-05-23T07:57:24.590Z,15.70
2019-05-23T07:58:56.984Z,15.70
2019-05-23T08:00:29.405Z,15.70
2019-05-23T08:02:01.900Z,15.70
2019-05-23T08:03:34.241Z,15.80
2019-05-23T08:05:06.598Z,15.80
2019-05-23T08:06:39.088Z,15.80
2019-05-23T08:08:11.550Z,15.90
2019-05-23T08:09:43.993Z,15.90
2019-05-23T08:11:16.466Z,15.90
2019-05-23T08:12:48.846Z,16.00
2019-05-23T08:14:21.316Z,16.00
2019-05-23T08:15:53.823Z,16.00
2019-05-23T08:17:26.255Z,16.10
2019-05-23T08:18:58.737Z,16.10
2019-05-23T08:20:31.151Z,16.10
2019-05-23T08:22:03.513Z,16.20
2019-05-23T08:23:36.379Z,16.20
2019-05-23T08:25:08.796Z,16.20
2019-05-23T08:26:41.251Z,16.20
2019-05-23T08:28:13.719Z,16.30
2019-05-23T08:29:46.062Z,16.30
2019-05-23T08:31:18.510Z,16.30
2019-05-23T08:32:51.000Z,16.40
2019-05-23T08:34:40.181Z,16.40
2019-05-23T08:35:57.446Z,16.40
2019-05-23T08:37:29.884Z,16.50
2019-05-23T08:39:02.361Z,16.50
2019-05-23T08:40:34.771Z,16.50
2019-05-23T08:42:07.129Z,16.50
2019-05-23T08:43:39.614Z,16.60
2019-05-23T08:45:12.045Z,16.60
2019-05-23T08:46:44.523Z,16.60
2019-05-23T08:48:16.963Z,16.60
2019-05-23T08:49:49.569Z,16.70
2019-05-23T08:51:22.076Z,16.70
2019-05-23T08:52:54.575Z,16.70
2019-05-23T08:54:26.920Z,16.70
2019-05-23T08:55:59.333Z,16.70
2019-05-23T08:57:31.838Z,16.70
2019-05-23T08:59:04.251Z,16.70
2019-05-23T09:00:36.666Z,16.80
2019-05-23T09:02:09.054Z,16.80
2019-05-23T09:03:41.527Z,16.80
2019-05-23T09:05:13.986Z,16.80
2019-05-23T09:06:46.419Z,16.80
2019-05-23T09:08:18.928Z,16.80
2019-05-23T09:09:51.348Z,16.90
2019-05-23T09:11:23.922Z,16.90
2019-05-23T09:12:56.322Z,16.90
2019-05-23T09:14:28.849Z,17.00
2019-05-23T09:16:01.363Z,17.00
2019-05-23T09:17:51.610Z,17.00
2019-05-23T09:19:08.063Z,17.10
2019-05-23T09:20:40.745Z,17.10
2019-05-23T09:22:13.252Z,17.10
2019-05-23T09:23:45.772Z,17.20
2019-05-23T09:25:18.285Z,17.20
2019-05-23T09:26:50.655Z,17.30
2019-05-23T09:28:23.508Z,17.30
2019-05-23T09:29:56.006Z,17.30
2019-05-23T09:31:28.352Z,17.30
2019-05-23T09:33:00.857Z,17.40
2019-05-23T09:34:33.352Z,17.40
2019-05-23T09:36:05.781Z,17.50
2019-05-23T09:37:38.270Z,17.50
2019-05-23T09:39:10.969Z,17.50
2019-05-23T09:40:43.459Z,17.50
2019-05-23T09:42:16.377Z,17.60
2019-05-23T09:43:49.309Z,17.60
2019-05-23T09:45:21.721Z,17.60
2019-05-23T09:46:54.225Z,17.60
2019-05-23T09:48:27.612Z,17.60
2019-05-23T09:50:00.297Z,17.60
2019-05-23T09:51:32.783Z,17.60
2019-05-23T09:53:05.630Z,17.60
2019-05-23T09:54:38.063Z,17.60
2019-05-23T09:56:10.920Z,17.60
2019-05-23T09:57:43.689Z,17.60
2019-05-23T09:59:16.176Z,17.60
2019-05-23T10:00:54.584Z,17.60
2019-05-23T10:02:27.863Z,17.60
2019-05-23T10:04:00.950Z,17.60
2019-05-23T10:05:42.934Z,17.60
2019-05-23T10:07:08.632Z,17.60
2019-05-23T10:08:41.100Z,17.60
2019-05-23T10:10:14.944Z,17.70
2019-05-23T10:11:48.117Z,17.70
2019-05-23T10:13:37.807Z,17.70
2019-05-23T10:14:57.146Z,17.70
2019-05-23T10:16:33.487Z,17.70
2019-05-23T10:18:05.864Z,17.70
2019-05-23T10:19:40.101Z,17.70
2019-05-23T10:21:13.440Z,17.80
2019-05-23T10:22:45.947Z,17.80
2019-05-23T10:24:19.541Z,17.90
2019-05-23T10:25:52.682Z,17.90
2019-05-23T10:27:25.621Z,17.90
2019-05-23T10:28:58.531Z,18.00
2019-05-23T10:30:31.292Z,18.00
2019-05-23T10:32:03.779Z,18.10
2019-05-23T10:33:37.734Z,18.10
2019-05-23T10:35:10.221Z,18.20
2019-05-23T10:36:42.636Z,18.20
2019-05-23T10:38:15.118Z,18.20
2019-05-23T10:39:47.549Z,18.30
2019-05-23T10:41:19.988Z,18.30
2019-05-23T10:42:53.360Z,18.40
2019-05-23T10:44:28.671Z,18.40
2019-05-23T10:46:03.827Z,18.40
2019-05-23T10:47:37.860Z,18.40
2019-05-23T10:49:11.751Z,18.50
2019-05-23T10:50:45.566Z,18.50
2019-05-23T10:52:18.139Z,18.50
2019-05-23T10:53:51.206Z,18.50
2019-05-23T10:55:23.943Z,18.60
2019-05-23T10:56:57.131Z,18.60
2019-05-23T10:58:30.320Z,18.60
2019-05-23T11:00:02.740Z,18.60
2019-05-23T11:01:35.770Z,18.70
2019-05-23T11:03:08.265Z,18.70
2019-05-23T11:04:40.707Z,18.70
2019-05-23T11:06:16.709Z,18.70
2019-05-23T11:07:49.817Z,18.70
2019-05-23T11:09:36.540Z,18.70
2019-05-23T11:10:56.255Z,18.80
2019-05-23T11:12:28.756Z,18.80
2019-05-23T11:14:01.299Z,18.80
2019-05-23T11:15:33.742Z,18.90
2019-05-23T11:17:06.104Z,18.90
2019-05-23T11:18:38.551Z,18.90
2019-05-23T11:20:10.927Z,19.00
2019-05-23T11:21:43.374Z,19.10
2019-05-23T11:23:15.787Z,19.10
2019-05-23T11:24:48.300Z,19.10
2019-05-23T11:26:20.758Z,19.10
2019-05-23T11:27:53.193Z,19.10
2019-05-23T11:29:27.430Z,19.10
2019-05-23T11:30:59.810Z,19.10
2019-05-23T11:32:32.234Z,19.10
2019-05-23T11:34:04.722Z,19.10
2019-05-23T11:35:37.145Z,19.20
2019-05-23T11:37:09.555Z,19.20
2019-05-23T11:38:41.983Z,19.30
2019-05-23T11:40:14.499Z,19.30
2019-05-23T11:41:46.887Z,19.30
2019-05-23T11:43:21.451Z,19.30
2019-05-23T11:44:53.923Z,19.40
2019-05-23T11:46:26.340Z,19.40
2019-05-23T11:47:58.769Z,19.50
2019-05-23T11:49:31.228Z,19.50
2019-05-23T11:51:03.878Z,19.50
2019-05-23T11:52:36.358Z,19.60
2019-05-23T11:54:10.017Z,19.70
2019-05-23T11:55:42.667Z,19.70
2019-05-23T11:57:15.069Z,19.80
2019-05-23T11:58:47.498Z,19.80
2019-05-23T12:00:19.967Z,19.90
2019-05-23T12:01:52.414Z,20.00
2019-05-23T12:03:24.914Z,20.00
2019-05-23T12:04:57.317Z,20.10
2019-05-23T12:06:29.721Z,20.10
2019-05-23T12:08:02.141Z,20.20
2019-05-23T12:09:34.560Z,20.20
2019-05-23T12:11:06.988Z,20.20
2019-05-23T12:12:39.464Z,20.30
2019-05-23T12:14:11.888Z,20.40
2019-05-23T12:15:44.364Z,20.50
2019-05-23T12:17:16.793Z,20.60
2019-05-23T12:18:49.233Z,20.70
2019-05-23T12:20:21.715Z,20.70
2019-05-23T12:21:54.231Z,20.80
2019-05-23T12:23:26.646Z,20.80
2019-05-23T12:25:17.969Z,20.90
2019-05-23T12:26:33.261Z,20.90
2019-05-23T12:28:05.669Z,20.90
2019-05-23T12:29:38.168Z,20.90
2019-05-23T12:31:10.694Z,21.00
2019-05-23T12:32:43.094Z,21.00
2019-05-23T12:34:15.587Z,21.10
2019-05-23T12:35:48.017Z,21.10
2019-05-23T12:37:20.916Z,21.20
2019-05-23T12:38:53.506Z,21.30
2019-05-23T12:40:26.004Z,21.40
2019-05-23T12:41:58.339Z,21.50
2019-05-23T12:43:30.819Z,21.60
2019-05-23T12:45:03.232Z,21.70
2019-05-23T12:46:35.702Z,21.80
2019-05-23T12:48:08.193Z,21.80
2019-05-23T12:49:40.668Z,21.80
2019-05-23T12:51:13.094Z,21.80
2019-05-23T12:52:45.570Z,21.80
2019-05-23T12:54:18.060Z,21.80
2019-05-23T12:55:50.495Z,21.80
2019-05-23T12:57:22.840Z,21.90
2019-05-23T12:58:55.320Z,21.90
2019-05-23T13:00:27.678Z,22.00
2019-05-23T13:02:00.172Z,22.10
2019-05-23T13:03:32.653Z,22.20
2019-05-23T13:05:05.069Z,22.30
2019-05-23T13:06:37.566Z,22.40
2019-05-23T13:08:09.967Z,22.50
2019-05-23T13:09:42.312Z,22.60
2019-05-23T13:11:14.815Z,22.80
2019-05-23T13:12:47.226Z,22.90
2019-05-23T13:14:19.651Z,23.00
2019-05-23T13:15:52.140Z,23.20
2019-05-23T13:17:24.566Z,23.40
2019-05-23T13:18:56.976Z,23.60
2019-05-23T13:20:29.381Z,23.80
2019-05-23T13:22:01.907Z,24.10
2019-05-23T13:23:34.324Z,24.30
2019-05-23T13:25:06.735Z,24.60
2019-05-23T13:26:39.375Z,24.90
2019-05-23T13:28:11.793Z,25.30
2019-05-23T13:29:44.271Z,25.70
2019-05-23T13:31:16.609Z,26.10
2019-05-23T13:32:48.970Z,26.40
2019-05-23T13:34:21.445Z,26.70
2019-05-23T13:35:54.048Z,27.00
2019-05-23T13:37:26.461Z,27.30
2019-05-23T13:38:58.957Z,27.80
2019-05-23T13:40:31.449Z,28.20
2019-05-23T13:42:03.788Z,28.60
2019-05-23T13:43:36.210Z,29.10
2019-05-23T13:45:09.011Z,29.50
2019-05-23T13:46:41.367Z,30.00
2019-05-23T13:48:13.963Z,30.60
2019-05-23T13:49:46.437Z,31.20
2019-05-23T13:51:18.874Z,31.70
2019-05-23T13:52:51.949Z,32.20
2019-05-23T13:54:24.463Z,32.70
2019-05-23T13:55:56.860Z,33.20
2019-05-23T13:57:29.276Z,33.70
2019-05-23T13:59:01.721Z,34.10
2019-05-23T14:00:34.131Z,34.50
2019-05-23T14:02:06.653Z,35.00
2019-05-23T14:03:39.134Z,35.50
2019-05-23T14:05:11.578Z,36.00
2019-05-23T14:06:44.157Z,36.50
2019-05-23T14:08:19.155Z,37.00
2019-05-23T14:09:50.719Z,37.40
2019-05-23T14:11:23.123Z,37.80
2019-05-23T14:12:55.532Z,38.10
2019-05-23T14:14:27.880Z,38.50
2019-05-23T14:16:00.366Z,38.90
2019-05-23T14:17:32.847Z,39.20
2019-05-23T14:19:05.269Z,39.60
2019-05-23T14:20:37.796Z,39.90
2019-05-23T14:22:10.241Z,40.20
2019-05-23T14:23:42.653Z,40.60
2019-05-23T14:25:15.142Z,40.80
2019-05-23T14:26:47.630Z,41.10
2019-05-23T14:28:20.033Z,41.30
2019-05-23T14:29:52.449Z,41.50
2019-05-23T14:31:24.939Z,41.50
2019-05-23T14:32:57.279Z,41.60
2019-05-23T14:34:29.748Z,41.60
2019-05-23T14:36:02.268Z,41.80
2019-05-23T14:37:34.675Z,41.90
2019-05-23T14:39:07.151Z,41.90
2019-05-23T14:40:39.636Z,41.90
2019-05-23T14:42:12.119Z,41.90
2019-05-23T14:43:44.580Z,41.80
2019-05-23T14:45:16.988Z,41.80
2019-05-23T14:46:49.409Z,41.80
2019-05-23T14:48:21.853Z,41.80
2019-05-23T14:49:54.522Z,41.80
2019-05-23T14:51:26.878Z,41.80
2019-05-23T14:52:59.296Z,41.80
2019-05-23T14:54:31.720Z,41.70
2019-05-23T14:56:04.194Z,41.70
2019-05-23T14:57:36.545Z,41.70
2019-05-23T14:59:09.020Z,41.70
2019-05-23T15:00:41.352Z,41.70
2019-05-23T15:02:13.859Z,41.70
2019-05-23T15:03:46.193Z,41.70
2019-05-23T15:05:18.541Z,41.60
2019-05-23T15:06:51.044Z,41.50
2019-05-23T15:08:23.550Z,41.50
2019-05-23T15:09:56.239Z,41.30
2019-05-23T15:11:28.660Z,41.30
2019-05-23T15:13:01.173Z,41.20
2019-05-23T15:14:33.579Z,41.20
2019-05-23T15:16:05.929Z,41.20
2019-05-23T15:17:38.436Z,41.20
2019-05-23T15:19:10.838Z,41.20
2019-05-23T15:20:43.323Z,41.00
2019-05-23T15:22:15.829Z,41.00
2019-05-23T15:23:48.237Z,40.90
2019-05-23T15:25:20.646Z,40.70
2019-05-23T15:26:52.976Z,40.60
2019-05-23T15:28:25.611Z,40.40
2019-05-23T15:29:58.031Z,40.30
2019-05-23T15:31:30.451Z,40.00
2019-05-23T15:33:02.983Z,39.80
2019-05-23T15:34:35.613Z,39.60
2019-05-23T15:36:08.218Z,39.40
2019-05-23T15:37:40.755Z,39.10
2019-05-23T15:39:13.270Z,38.90
2019-05-23T15:40:45.740Z,38.70
2019-05-23T15:42:18.144Z,38.50
2019-05-23T15:43:50.679Z,38.50
2019-05-23T15:45:23.005Z,38.50
2019-05-23T15:46:55.350Z,38.50
2019-05-23T15:48:27.769Z,38.50
2019-05-23T15:50:00.217Z,38.50
2019-05-23T15:51:32.615Z,38.40
2019-05-23T15:53:05.111Z,38.40
2019-05-23T15:54:37.537Z,38.30
2019-05-23T15:56:26.057Z,38.20
2019-05-23T15:57:44.082Z,38.10
2019-05-23T15:59:16.580Z,37.90
2019-05-23T16:00:49.020Z,37.70
2019-05-23T16:02:21.440Z,37.40
2019-05-23T16:03:53.920Z,37.10
2019-05-23T16:05:27.296Z,36.80
2019-05-23T16:06:59.840Z,36.60
2019-05-23T16:08:32.290Z,36.30
2019-05-23T16:10:04.738Z,36.00
2019-05-23T16:11:37.218Z,35.60
2019-05-23T16:13:09.718Z,35.30
2019-05-23T16:14:42.147Z,35.00
2019-05-23T16:16:14.671Z,34.70
2019-05-23T16:17:47.169Z,34.40
2019-05-23T16:19:19.586Z,34.00
2019-05-23T16:20:52.123Z,33.80
2019-05-23T16:22:24.692Z,33.40
2019-05-23T16:23:57.288Z,33.10
2019-05-23T16:25:29.792Z,32.80
2019-05-23T16:27:02.243Z,32.50
2019-05-23T16:28:34.664Z,32.20
2019-05-23T16:30:07.207Z,31.90
2019-05-23T16:31:39.684Z,31.60
2019-05-23T16:33:12.113Z,31.30
2019-05-23T16:34:44.604Z,31.00
2019-05-23T16:36:17.037Z,30.80
2019-05-23T16:37:49.469Z,30.50
2019-05-23T16:39:21.952Z,30.30
2019-05-23T16:40:54.544Z,30.10
2019-05-23T16:42:27.019Z,29.90
2019-05-23T16:43:59.511Z,29.60
2019-05-23T16:45:31.913Z,29.40
2019-05-23T16:47:04.360Z,29.20
2019-05-23T16:48:36.778Z,29.00
2019-05-23T16:50:09.247Z,28.80
2019-05-23T16:51:41.686Z,28.50
2019-05-23T16:53:14.185Z,28.30
2019-05-23T16:54:46.683Z,28.10
2019-05-23T16:56:19.115Z,27.90
2019-05-23T16:57:51.649Z,27.70
2019-05-23T16:59:24.237Z,27.50
2019-05-23T17:00:58.450Z,27.30
2019-05-23T17:02:31.109Z,27.10
2019-05-23T17:04:03.595Z,27.00
2019-05-23T17:05:36.000Z,26.80
2019-05-23T17:07:08.448Z,26.60
2019-05-23T17:08:40.959Z,26.50
2019-05-23T17:10:13.381Z,26.30
2019-05-23T17:11:45.864Z,26.10
2019-05-23T17:13:18.312Z,25.90
2019-05-23T17:14:52.069Z,25.80
2019-05-23T17:16:24.762Z,25.60
2019-05-23T17:18:02.653Z,25.50
2019-05-23T17:19:31.848Z,25.30
2019-05-23T17:21:04.549Z,25.20
2019-05-23T17:22:36.999Z,25.00
2019-05-23T17:24:09.452Z,24.90
2019-05-23T17:25:42.058Z,24.80
2019-05-23T17:27:14.517Z,24.70
2019-05-23T17:28:46.873Z,24.60
2019-05-23T17:30:19.430Z,24.50
2019-05-23T17:31:52.002Z,24.30
2019-05-23T17:33:24.410Z,24.20
2019-05-23T17:34:56.853Z,24.10
2019-05-23T17:36:29.527Z,24.10
2019-05-23T17:38:01.871Z,23.90
2019-05-23T17:39:34.365Z,23.80
2019-05-23T17:41:06.885Z,23.70
2019-05-23T17:42:39.565Z,23.60
2019-05-23T17:44:12.097Z,23.50
2019-05-23T17:45:44.512Z,23.40
2019-05-23T17:47:16.901Z,23.20
2019-05-23T17:48:49.387Z,23.10
2019-05-23T17:50:25.005Z,23.00
2019-05-23T17:51:57.476Z,22.90
2019-05-23T17:53:29.953Z,22.80
2019-05-23T17:55:02.303Z,22.70
2019-05-23T17:56:34.657Z,22.60
2019-05-23T17:58:07.188Z,22.50
2019-05-23T17:59:39.723Z,22.40
2019-05-23T18:01:12.138Z,22.30
2019-05-23T18:02:44.553Z,22.20
2019-05-23T18:04:19.984Z,22.10
2019-05-23T18:05:52.569Z,22.10
2019-05-23T18:07:25.060Z,22.00
2019-05-23T18:08:57.488Z,21.90
2019-05-23T18:10:44.037Z,21.90
2019-05-23T18:12:04.080Z,21.80
2019-05-23T18:13:36.622Z,21.70
2019-05-23T18:15:09.058Z,21.60
2019-05-23T18:16:41.568Z,21.60
2019-05-23T18:18:14.059Z,21.50
2019-05-23T18:19:46.577Z,21.50
2019-05-23T18:21:19.091Z,21.40
2019-05-23T18:22:51.506Z,21.40
2019-05-23T18:24:24.012Z,21.30
2019-05-23T18:25:56.368Z,21.20
2019-05-23T18:27:29.144Z,21.20
2019-05-23T18:29:01.483Z,21.20
2019-05-23T18:30:33.997Z,21.10
2019-05-23T18:32:06.508Z,21.10
2019-05-23T18:33:38.907Z,21.00
2019-05-23T18:35:11.244Z,21.00
2019-05-23T18:36:43.809Z,20.90
2019-05-23T18:38:17.454Z,20.90
2019-05-23T18:39:49.896Z,20.90
2019-05-23T18:41:22.274Z,20.80
2019-05-23T18:42:54.636Z,20.80
2019-05-23T18:44:27.121Z,20.80
2019-05-23T18:45:59.544Z,20.80
2019-05-23T18:47:32.085Z,20.70
2019-05-23T18:49:04.790Z,20.70
2019-05-23T18:50:37.163Z,20.70
2019-05-23T18:52:09.587Z,20.70
2019-05-23T18:53:42.036Z,20.70
2019-05-23T18:55:14.539Z,20.60
2019-05-23T18:56:47.001Z,20.60
2019-05-23T18:58:20.311Z,20.60
2019-05-23T18:59:53.104Z,20.50
2019-05-23T19:01:25.501Z,20.50
2019-05-23T19:02:58.025Z,20.50
2019-05-23T19:04:30.472Z,20.40
2019-05-23T19:06:02.979Z,20.50
2019-05-23T19:07:35.571Z,20.40
2019-05-23T19:09:08.087Z,20.40
2019-05-23T19:10:40.503Z,20.40
2019-05-23T19:12:13.117Z,20.30
2019-05-23T19:13:47.709Z,20.30
2019-05-23T19:15:20.257Z,20.20
2019-05-23T19:16:52.683Z,20.20
2019-05-23T19:18:25.133Z,20.20
2019-05-23T19:19:57.544Z,20.20
2019-05-23T19:21:30.040Z,20.10
2019-05-23T19:23:02.471Z,20.10
2019-05-23T19:24:34.930Z,20.10
2019-05-23T19:26:07.431Z,20.10
2019-05-23T19:27:39.871Z,20.00
2019-05-23T19:29:12.389Z,20.00
2019-05-23T19:30:44.869Z,20.00
2019-05-23T19:32:17.434Z,20.00
2019-05-23T19:33:50.164Z,19.90
2019-05-23T19:35:22.643Z,19.90
2019-05-23T19:36:56.286Z,19.90
2019-05-23T19:38:28.826Z,19.80
2019-05-23T19:40:01.253Z,19.80
2019-05-23T19:41:37.680Z,19.80
2019-05-23T19:43:07.844Z,19.80
2019-05-23T19:44:40.264Z,19.70
2019-05-23T19:46:12.812Z,19.70
2019-05-23T19:47:45.211Z,19.70
2019-05-23T19:49:17.784Z,19.70
2019-05-23T19:50:50.196Z,19.60
2019-05-23T19:52:22.607Z,19.60
2019-05-23T19:53:55.310Z,19.60